createdAt,value
2022-11-24T00:01:08.748Z,63.81
2022-11-24T00:03:35.878Z,63.72
2022-11-24T00:06:04.788Z,65.51
2022-11-24T00:08:31.332Z,65.75
2022-11-24T00:11:03.391Z,65.50
2022-11-24T00:13:29.840Z,64.44
2022-11-24T00:16:07.734Z,64.96
2022-11-24T00:18:34.177Z,64.55
2022-11-24T00:21:00.791Z,64.29
2022-11-24T00:23:27.489Z,65.50
2022-11-24T00:25:54.013Z,65.55
2022-11-24T00:28:20.460Z,66.18
2022-11-24T00:30:46.970Z,67.19
2022-11-24T00:33:13.494Z,68.38
2022-11-24T00:35:39.914Z,68.05
2022-11-24T00:38:06.434Z,67.71
2022-11-24T00:40:35.124Z,67.73
2022-11-24T00:43:01.732Z,66.40
2022-11-24T00:45:28.205Z,67.40
2022-11-24T00:47:54.645Z,67.15
2022-11-24T00:50:21.322Z,67.87
2022-11-24T00:52:47.839Z,66.49
2022-11-24T00:55:14.327Z,66.28
2022-11-24T00:57:40.777Z,66.29
2022-11-24T01:00:08.278Z,66.11
2022-11-24T01:02:34.855Z,65.61
2022-11-24T01:05:03.196Z,65.66
2022-11-24T01:07:30.693Z,66.66
2022-11-24T01:09:57.254Z,65.31
2022-11-24T01:12:23.718Z,66.62
2022-11-24T01:14:50.182Z,66.83
2022-11-24T01:17:16.665Z,66.11
2022-11-24T01:19:43.140Z,65.86
2022-11-24T01:22:09.701Z,66.62
2022-11-24T01:24:36.447Z,67.38
2022-11-24T01:27:03.912Z,66.96
2022-11-24T01:29:30.396Z,66.43
2022-11-24T01:31:56.873Z,65.26
2022-11-24T01:34:23.553Z,64.78
2022-11-24T01:36:50.216Z,65.81
2022-11-24T01:39:16.699Z,65.44
2022-11-24T01:41:43.239Z,65.34
2022-11-24T01:44:23.041Z,65.16
2022-11-24T01:47:00.792Z,64.09
2022-11-24T01:49:41.255Z,63.58
2022-11-24T01:52:15.408Z,63.89
2022-11-24T01:54:45.418Z,62.99
2022-11-24T01:57:31.286Z,64.66
2022-11-24T02:00:06.038Z,63.44
2022-11-24T02:02:32.747Z,63.06
2022-11-24T02:05:03.904Z,64.83
2022-11-24T02:07:30.881Z,64.19
2022-11-24T02:10:07.464Z,64.75
2022-11-24T02:12:34.145Z,64.11
2022-11-24T02:15:00.703Z,66.41
2022-11-24T02:17:27.213Z,64.66
2022-11-24T02:20:02.390Z,64.77
2022-11-24T02:22:55.084Z,63.98
2022-11-24T02:25:31.429Z,63.02
2022-11-24T02:27:59.393Z,63.58
2022-11-24T02:30:25.992Z,63.16
2022-11-24T02:32:52.662Z,65.81
2022-11-24T02:35:19.869Z,63.79
2022-11-24T02:37:46.381Z,64.27
2022-11-24T02:40:16.341Z,64.06
2022-11-24T02:42:44.510Z,64.19
2022-11-24T02:45:11.742Z,63.89
2022-11-24T02:47:38.315Z,62.97
2022-11-24T02:50:05.217Z,62.83
2022-11-24T02:52:31.681Z,62.34
2022-11-24T02:54:58.122Z,63.51
2022-11-24T02:57:24.622Z,63.57
2022-11-24T02:59:51.106Z,62.07
2022-11-24T03:02:17.762Z,63.25
2022-11-24T03:04:44.656Z,63.10
2022-11-24T03:07:11.164Z,63.22
2022-11-24T03:09:37.744Z,63.02
2022-11-24T03:12:04.500Z,62.97
2022-11-24T03:14:30.986Z,63.50
2022-11-24T03:16:57.527Z,62.92
2022-11-24T03:19:24.052Z,61.47
2022-11-24T03:21:50.483Z,61.77
2022-11-24T03:24:17.018Z,62.79
2022-11-24T03:26:43.487Z,63.71
2022-11-24T03:29:09.977Z,61.49
2022-11-24T03:31:36.508Z,60.63
2022-11-24T03:34:03.087Z,62.08
2022-11-24T03:36:29.562Z,62.18
2022-11-24T03:38:56.462Z,62.36
2022-11-24T03:41:23.095Z,61.77
2022-11-24T03:43:49.562Z,60.50
2022-11-24T03:46:16.066Z,60.03
2022-11-24T03:48:42.559Z,60.85
2022-11-24T03:51:09.599Z,59.67
2022-11-24T03:53:36.135Z,61.35
2022-11-24T03:56:03.180Z,60.88
2022-11-24T03:58:30.008Z,60.33
2022-11-24T04:00:57.295Z,60.20
2022-11-24T04:03:24.219Z,59.45
2022-11-24T04:05:50.803Z,61.03
2022-11-24T04:08:17.933Z,61.03
2022-11-24T04:10:44.411Z,60.66
2022-11-24T04:13:13.766Z,61.14
2022-11-24T04:15:41.272Z,61.02
2022-11-24T04:18:08.608Z,60.08
2022-11-24T04:20:35.496Z,62.67
2022-11-24T04:23:02.113Z,61.75
2022-11-24T04:25:28.657Z,60.88
2022-11-24T04:27:56.181Z,61.38
2022-11-24T04:30:24.390Z,60.60
2022-11-24T04:32:50.970Z,60.29
2022-11-24T04:35:17.840Z,61.04
2022-11-24T04:37:44.289Z,61.70
2022-11-24T04:40:11.548Z,61.16
2022-11-24T04:42:38.277Z,61.62
2022-11-24T04:45:06.259Z,61.42
2022-11-24T04:47:33.029Z,59.76
2022-11-24T04:50:00.301Z,60.62
2022-11-24T04:52:27.011Z,63.03
2022-11-24T04:54:53.923Z,61.69
2022-11-24T04:57:22.990Z,61.21
2022-11-24T04:59:50.429Z,61.71
2022-11-24T05:02:17.451Z,60.49
2022-11-24T05:04:44.610Z,60.36
2022-11-24T05:07:17.916Z,62.85
2022-11-24T05:10:05.441Z,63.46
2022-11-24T05:12:32.306Z,66.71
2022-11-24T05:14:59.473Z,65.69
2022-11-24T05:17:34.723Z,67.58
2022-11-24T05:20:01.713Z,65.68
2022-11-24T05:22:29.308Z,65.33
2022-11-24T05:24:55.794Z,64.67
2022-11-24T05:27:22.419Z,65.40
2022-11-24T05:29:48.915Z,67.04
2022-11-24T05:32:15.749Z,66.52
2022-11-24T05:34:42.244Z,69.20
2022-11-24T05:37:08.928Z,69.94
2022-11-24T05:39:36.645Z,70.36
2022-11-24T05:42:25.420Z,70.04
2022-11-24T05:44:52.891Z,70.38
2022-11-24T05:47:19.945Z,71.69
2022-11-24T05:49:46.406Z,71.35
2022-11-24T05:52:13.117Z,70.51
2022-11-24T05:54:39.656Z,71.65
2022-11-24T05:57:06.168Z,71.21
2022-11-24T05:59:32.787Z,71.83
2022-11-24T06:01:59.880Z,70.57
2022-11-24T06:04:26.433Z,70.37
2022-11-24T06:06:52.905Z,70.35
2022-11-24T06:09:19.417Z,71.77
2022-11-24T06:11:47.349Z,69.83
2022-11-24T06:14:14.420Z,70.06
2022-11-24T06:16:40.934Z,69.88
2022-11-24T06:19:07.520Z,70.24
2022-11-24T06:21:34.038Z,69.55
2022-11-24T06:24:00.667Z,69.57
2022-11-24T06:26:27.578Z,68.49
2022-11-24T06:28:54.268Z,69.39
2022-11-24T06:31:20.826Z,68.74
2022-11-24T06:33:47.843Z,69.24
2022-11-24T06:36:15.182Z,68.49
2022-11-24T06:38:41.682Z,68.98
2022-11-24T06:41:11.891Z,68.27
2022-11-24T06:43:38.490Z,67.25
2022-11-24T06:46:05.342Z,67.63
2022-11-24T06:48:32.063Z,67.01
2022-11-24T06:51:08.593Z,66.74
2022-11-24T06:53:39.627Z,66.83
2022-11-24T06:56:13.750Z,65.97
2022-11-24T06:58:46.782Z,66.73
2022-11-24T07:01:17.928Z,67.26
2022-11-24T07:03:45.195Z,66.39
2022-11-24T07:06:11.634Z,67.60
2022-11-24T07:08:38.169Z,65.86
2022-11-24T07:11:09.550Z,66.01
2022-11-24T07:13:36.416Z,67.38
2022-11-24T07:16:19.066Z,67.88
2022-11-24T07:18:46.859Z,66.37
2022-11-24T07:21:13.837Z,66.60
2022-11-24T07:23:40.522Z,66.12
2022-11-24T07:26:08.126Z,67.35
2022-11-24T07:28:36.679Z,66.06
2022-11-24T07:31:11.609Z,66.19
2022-11-24T07:33:38.458Z,66.74
2022-11-24T07:36:06.303Z,65.33
2022-11-24T07:38:33.821Z,66.56
2022-11-24T07:41:02.249Z,64.74
2022-11-24T07:43:30.491Z,64.60
2022-11-24T07:45:57.241Z,63.95
2022-11-24T07:48:23.824Z,64.33
2022-11-24T07:50:55.564Z,64.62
2022-11-24T07:53:22.649Z,64.72
2022-11-24T07:56:00.525Z,64.45
2022-11-24T07:58:32.345Z,63.75
2022-11-24T08:00:59.542Z,63.60
2022-11-24T08:03:26.117Z,63.59
2022-11-24T08:08:43.329Z,62.57
2022-11-24T08:11:12.590Z,62.53
2022-11-24T08:13:39.511Z,62.53
2022-11-24T08:16:07.974Z,62.32
2022-11-24T08:18:35.596Z,61.87
2022-11-24T08:21:02.559Z,63.64
2022-11-24T08:23:29.297Z,61.31
2022-11-24T08:25:57.223Z,60.96
2022-11-24T08:28:24.307Z,59.94
2022-11-24T08:30:51.259Z,59.88
2022-11-24T08:33:17.802Z,61.34
2022-11-24T08:35:44.338Z,60.41
2022-11-24T08:38:10.879Z,59.62
2022-11-24T08:40:37.504Z,60.75
2022-11-24T08:43:04.076Z,62.16
2022-11-24T08:45:30.838Z,62.15
2022-11-24T08:47:58.096Z,62.27
2022-11-24T08:50:25.470Z,62.98
2022-11-24T08:52:53.624Z,62.05
2022-11-24T08:55:20.769Z,63.03
2022-11-24T08:57:47.248Z,62.51
2022-11-24T09:00:14.297Z,63.00
2022-11-24T09:02:42.497Z,63.38
2022-11-24T09:05:28.737Z,62.35
2022-11-24T09:07:55.620Z,62.93
2022-11-24T09:10:22.408Z,62.49
2022-11-24T09:12:51.186Z,61.51
2022-11-24T09:15:20.148Z,61.84
2022-11-24T09:17:46.623Z,60.94
2022-11-24T09:20:13.231Z,60.36
2022-11-24T09:22:41.648Z,59.86
2022-11-24T09:25:08.443Z,59.75
2022-11-24T09:27:35.625Z,59.53
2022-11-24T09:30:02.594Z,58.93
2022-11-24T09:32:30.614Z,58.93
2022-11-24T09:34:57.213Z,59.44
2022-11-24T09:37:28.143Z,58.87
2022-11-24T09:39:56.386Z,58.60
2022-11-24T09:42:38.145Z,57.47
2022-11-24T09:45:12.329Z,58.83
2022-11-24T09:47:46.798Z,58.41
2022-11-24T09:50:22.408Z,60.18
2022-11-24T09:53:03.497Z,60.45
2022-11-24T09:55:45.096Z,61.62
2022-11-24T09:58:39.229Z,62.97
2022-11-24T10:01:20.636Z,62.76
2022-11-24T10:03:53.891Z,62.16
2022-11-24T10:06:25.012Z,60.83
2022-11-24T10:09:23.677Z,60.51
2022-11-24T10:12:14.933Z,59.30
2022-11-24T10:15:02.985Z,62.16
2022-11-24T10:17:43.333Z,60.70
2022-11-24T10:20:35.490Z,62.14
2022-11-24T10:23:20.227Z,61.30
2022-11-24T10:25:51.768Z,62.58
2022-11-24T10:28:18.425Z,62.72
2022-11-24T10:30:45.162Z,62.81
2022-11-24T10:33:18.674Z,61.39
2022-11-24T10:35:57.957Z,61.08
2022-11-24T10:38:52.869Z,60.53
2022-11-24T10:41:51.599Z,60.65
2022-11-24T10:44:19.874Z,62.77
2022-11-24T10:46:46.754Z,62.38
2022-11-24T10:49:18.992Z,60.73
2022-11-24T10:52:05.950Z,59.12
2022-11-24T10:54:33.415Z,60.54
2022-11-24T10:57:00.026Z,59.53
2022-11-24T10:59:37.262Z,59.90
2022-11-24T11:02:38.768Z,59.05
2022-11-24T11:05:23.778Z,60.24
2022-11-24T11:07:50.366Z,61.13
2022-11-24T11:10:23.421Z,60.66
2022-11-24T11:12:58.924Z,60.17
2022-11-24T11:15:30.064Z,61.51
2022-11-24T11:18:00.521Z,60.80
2022-11-24T11:20:33.947Z,60.38
2022-11-24T11:23:03.804Z,61.11
2022-11-24T11:25:34.824Z,59.33
2022-11-24T11:28:16.532Z,58.97
2022-11-24T11:31:17.763Z,58.36
2022-11-24T11:34:09.505Z,62.39
2022-11-24T11:36:46.000Z,63.49
2022-11-24T11:39:36.560Z,63.56
2022-11-24T11:42:09.135Z,62.95
2022-11-24T11:44:39.974Z,62.00
2022-11-24T11:47:50.888Z,62.23
2022-11-24T11:50:22.559Z,61.57
2022-11-24T11:53:01.261Z,61.01
2022-11-24T11:55:49.871Z,59.54
2022-11-24T11:58:47.348Z,59.48
2022-11-24T12:01:30.644Z,59.90
2022-11-24T12:04:16.028Z,58.04
2022-11-24T12:07:08.324Z,58.63
2022-11-24T12:09:56.896Z,59.24
2022-11-24T12:12:28.549Z,58.11
2022-11-24T12:15:20.253Z,55.60
2022-11-24T12:17:55.500Z,55.54
2022-11-24T12:20:40.956Z,54.72
2022-11-24T12:23:18.864Z,52.36
2022-11-24T12:26:17.867Z,52.06
2022-11-24T12:29:19.032Z,50.97
2022-11-24T12:32:03.753Z,50.68
2022-11-24T12:34:51.579Z,52.51
2022-11-24T12:37:38.157Z,54.23
2022-11-24T12:40:13.855Z,53.91
2022-11-24T12:42:52.552Z,54.12
2022-11-24T12:45:25.952Z,54.62
2022-11-24T12:48:21.176Z,54.87
2022-11-24T12:50:49.006Z,52.74
2022-11-24T12:53:46.029Z,52.88
2022-11-24T12:56:14.665Z,52.24
2022-11-24T12:58:50.164Z,52.99
2022-11-24T13:01:31.995Z,52.52
2022-11-24T13:04:15.873Z,53.61
2022-11-24T13:06:49.628Z,53.30
2022-11-24T13:09:17.050Z,53.74
2022-11-24T13:11:48.357Z,52.65
2022-11-24T13:14:31.453Z,51.27
2022-11-24T13:17:29.019Z,52.01
2022-11-24T13:19:46.075Z,52.48
2022-11-24T13:22:23.344Z,50.79
2022-11-24T13:25:12.453Z,50.50
2022-11-24T13:27:42.195Z,51.63
2022-11-24T13:30:33.815Z,52.99
2022-11-24T13:33:16.396Z,51.72
2022-11-24T13:36:24.720Z,52.06
2022-11-24T13:38:52.928Z,52.01
2022-11-24T13:41:32.032Z,53.00
2022-11-24T13:44:14.685Z,51.83
2022-11-24T13:47:07.295Z,53.21
2022-11-24T13:49:38.795Z,52.07
2022-11-24T13:52:36.568Z,51.80
2022-11-24T13:55:24.922Z,52.28
2022-11-24T13:57:58.534Z,53.94
2022-11-24T14:00:35.793Z,53.06
2022-11-24T14:03:24.868Z,52.65
2022-11-24T14:05:52.486Z,52.58
2022-11-24T14:08:26.315Z,52.05
2022-11-24T14:10:54.712Z,51.86
2022-11-24T14:13:27.471Z,53.47
2022-11-24T14:16:09.360Z,53.79
2022-11-24T14:18:40.859Z,54.05
2022-11-24T14:21:26.887Z,52.68
2022-11-24T14:24:10.249Z,53.35
2022-11-24T14:26:39.222Z,53.30
2022-11-24T14:29:06.812Z,52.28
2022-11-24T14:31:33.565Z,53.54
2022-11-24T14:34:12.436Z,53.71
2022-11-24T14:36:39.762Z,53.36
2022-11-24T14:39:07.123Z,53.83
2022-11-24T14:41:34.008Z,53.08
2022-11-24T14:44:54.150Z,52.78
2022-11-24T14:47:31.269Z,52.99
2022-11-24T14:50:09.355Z,52.22
2022-11-24T14:52:36.092Z,52.96
2022-11-24T14:55:21.462Z,52.45
2022-11-24T14:57:48.846Z,52.62
2022-11-24T15:00:24.208Z,52.32
2022-11-24T15:02:54.328Z,53.38
2022-11-24T15:05:22.404Z,53.77
2022-11-24T15:07:50.303Z,54.44
2022-11-24T15:10:33.797Z,54.75
2022-11-24T15:13:02.859Z,54.60
2022-11-24T15:15:34.258Z,55.70
2022-11-24T15:18:02.273Z,55.80
2022-11-24T15:20:33.142Z,55.76
2022-11-24T15:23:20.360Z,55.80
2022-11-24T15:25:47.521Z,55.42
2022-11-24T15:28:14.042Z,55.46
2022-11-24T15:30:40.537Z,55.48
2022-11-24T15:33:15.593Z,55.16
2022-11-24T15:35:42.355Z,56.92
2022-11-24T15:38:09.062Z,56.01
2022-11-24T15:40:37.469Z,56.75
2022-11-24T15:43:32.907Z,56.78
2022-11-24T15:46:00.338Z,56.33
2022-11-24T15:48:27.668Z,56.10
2022-11-24T15:50:54.684Z,56.30
2022-11-24T15:53:36.773Z,57.04
2022-11-24T15:56:06.905Z,56.49
2022-11-24T15:58:34.511Z,56.11
2022-11-24T16:01:01.165Z,56.34
2022-11-24T16:06:23.636Z,55.90
2022-11-24T16:08:50.594Z,57.09
2022-11-24T16:11:17.071Z,56.91
2022-11-24T16:13:48.397Z,56.87
2022-11-24T16:16:18.573Z,57.54
2022-11-24T16:18:45.460Z,57.95
2022-11-24T16:21:12.416Z,58.19
2022-11-24T16:23:38.984Z,57.69
2022-11-24T16:26:05.779Z,58.49
2022-11-24T16:28:32.562Z,58.89
2022-11-24T16:30:59.071Z,58.47
2022-11-24T16:33:25.576Z,59.64
2022-11-24T16:35:52.042Z,59.71
2022-11-24T16:38:21.623Z,59.08
2022-11-24T16:40:56.326Z,58.15
2022-11-24T16:43:24.383Z,58.89
2022-11-24T16:46:16.446Z,58.42
2022-11-24T16:48:44.424Z,58.25
2022-11-24T16:51:11.923Z,57.86
2022-11-24T16:53:38.621Z,57.35
2022-11-24T16:56:06.060Z,57.08
2022-11-24T16:58:33.135Z,57.18
2022-11-24T17:01:07.903Z,57.61
2022-11-24T17:03:37.949Z,58.01
2022-11-24T17:06:06.784Z,58.54
2022-11-24T17:08:34.927Z,58.18
2022-11-24T17:11:06.411Z,58.61
2022-11-24T17:13:33.625Z,58.17
2022-11-24T17:16:06.777Z,58.42
2022-11-24T17:18:33.714Z,58.12
2022-11-24T17:21:05.986Z,58.21
2022-11-24T17:23:35.863Z,59.80
2022-11-24T17:26:03.526Z,58.79
2022-11-24T17:28:30.027Z,58.90
2022-11-24T17:30:56.599Z,58.91
2022-11-24T17:33:23.216Z,59.83
2022-11-24T17:35:49.665Z,59.94
2022-11-24T17:38:16.154Z,60.77
2022-11-24T17:40:47.778Z,60.19
2022-11-24T17:43:14.243Z,61.08
2022-11-24T17:45:40.775Z,60.06
2022-11-24T17:48:07.592Z,59.31
2022-11-24T17:50:34.129Z,59.67
2022-11-24T17:53:00.904Z,59.14
2022-11-24T17:55:27.411Z,59.71
2022-11-24T17:57:54.173Z,61.45
2022-11-24T18:00:20.892Z,60.51
2022-11-24T18:02:47.375Z,61.66
2022-11-24T18:05:13.936Z,60.84
2022-11-24T18:07:40.507Z,60.27
2022-11-24T18:10:08.597Z,60.32
2022-11-24T18:12:35.059Z,60.10
2022-11-24T18:15:02.833Z,60.56
2022-11-24T18:17:29.409Z,59.78
2022-11-24T18:19:55.980Z,59.42
2022-11-24T18:22:42.999Z,59.93
2022-11-24T18:25:09.048Z,59.43
2022-11-24T18:27:35.565Z,60.44
2022-11-24T18:30:02.049Z,59.74
2022-11-24T18:32:28.506Z,60.58
2022-11-24T18:34:55.480Z,61.30
2022-11-24T18:37:21.962Z,60.89
2022-11-24T18:39:48.467Z,60.66
2022-11-24T18:42:15.234Z,60.71
2022-11-24T18:44:42.450Z,60.76
2022-11-24T18:47:09.031Z,61.38
2022-11-24T18:49:35.546Z,61.02
2022-11-24T18:52:02.038Z,61.53
2022-11-24T18:54:28.582Z,60.98
2022-11-24T18:56:57.799Z,60.63
2022-11-24T18:59:28.371Z,60.12
2022-11-24T19:01:56.001Z,60.28
2022-11-24T19:04:23.999Z,59.73
2022-11-24T19:06:50.541Z,59.52
2022-11-24T19:09:19.918Z,59.69
2022-11-24T19:11:46.758Z,58.85
2022-11-24T19:14:15.933Z,59.29
2022-11-24T19:16:42.839Z,61.11
2022-11-24T19:19:11.770Z,60.33
2022-11-24T19:21:39.346Z,60.95
2022-11-24T19:24:07.579Z,59.83
2022-11-24T19:26:36.962Z,59.40
2022-11-24T19:29:04.616Z,60.77
2022-11-24T19:31:31.604Z,60.09
2022-11-24T19:33:59.688Z,59.55
2022-11-24T19:36:26.578Z,59.63
2022-11-24T19:38:55.439Z,59.49
2022-11-24T19:41:24.583Z,59.17
2022-11-24T19:43:53.495Z,59.33
2022-11-24T19:46:20.934Z,59.76
2022-11-24T19:48:54.652Z,60.03
2022-11-24T19:51:30.868Z,59.87
2022-11-24T19:53:57.923Z,59.55
2022-11-24T19:56:27.163Z,59.57
2022-11-24T19:58:54.958Z,59.42
2022-11-24T20:01:25.761Z,59.62
2022-11-24T20:04:01.031Z,59.48
2022-11-24T20:06:29.629Z,58.78
2022-11-24T20:08:58.224Z,59.90
2022-11-24T20:11:26.403Z,59.91
2022-11-24T20:13:53.221Z,59.12
2022-11-24T20:16:26.478Z,60.27
2022-11-24T20:19:00.304Z,59.50
2022-11-24T20:21:28.740Z,58.78
2022-11-24T20:24:07.076Z,59.61
2022-11-24T20:26:36.348Z,58.70
2022-11-24T20:29:04.312Z,58.58
2022-11-24T20:31:34.921Z,58.54
2022-11-24T20:34:02.238Z,59.25
2022-11-24T20:36:30.849Z,58.16
2022-11-24T20:39:00.478Z,59.84
2022-11-24T20:41:29.745Z,58.64
2022-11-24T20:43:59.777Z,59.39
2022-11-24T20:46:29.822Z,58.88
2022-11-24T20:48:56.996Z,59.06
2022-11-24T20:51:26.011Z,59.43
2022-11-24T20:53:58.436Z,60.31
2022-11-24T20:56:30.347Z,59.06
2022-11-24T20:58:57.066Z,58.58
2022-11-24T21:01:28.945Z,58.03
2022-11-24T21:03:58.463Z,59.07
2022-11-24T21:06:26.177Z,58.58
2022-11-24T21:09:00.400Z,59.37
2022-11-24T21:11:28.645Z,59.22
2022-11-24T21:13:55.980Z,58.68
2022-11-24T21:16:24.181Z,57.88
2022-11-24T21:18:52.958Z,57.75
2022-11-24T21:21:21.120Z,59.08
2022-11-24T21:23:48.075Z,57.99
2022-11-24T21:26:17.070Z,57.60
2022-11-24T21:28:45.946Z,59.16
2022-11-24T21:31:15.036Z,59.48
2022-11-24T21:33:45.408Z,59.48
2022-11-24T21:36:14.642Z,59.72
2022-11-24T21:38:42.676Z,59.70
2022-11-24T21:41:10.924Z,59.13
2022-11-24T21:43:37.681Z,59.66
2022-11-24T21:46:08.818Z,60.23
2022-11-24T21:48:36.688Z,59.41
2022-11-24T21:51:05.922Z,60.40
2022-11-24T21:53:34.372Z,59.83
2022-11-24T21:56:02.622Z,58.63
2022-11-24T21:58:29.830Z,58.94
2022-11-24T22:01:02.450Z,60.25
2022-11-24T22:03:28.976Z,60.21
2022-11-24T22:05:57.001Z,60.46
2022-11-24T22:08:24.794Z,60.22
2022-11-24T22:10:51.877Z,61.58
2022-11-24T22:13:19.263Z,61.85
2022-11-24T22:15:45.903Z,61.34
2022-11-24T22:18:12.562Z,62.39
2022-11-24T22:20:39.352Z,62.29
2022-11-24T22:23:05.947Z,61.38
2022-11-24T22:25:33.413Z,61.53
2022-11-24T22:28:00.279Z,60.37
2022-11-24T22:30:27.015Z,60.91
2022-11-24T22:32:53.771Z,61.13
2022-11-24T22:35:20.460Z,60.10
2022-11-24T22:37:46.993Z,59.45
2022-11-24T22:40:13.646Z,60.71
2022-11-24T22:42:40.288Z,60.53
2022-11-24T22:45:07.675Z,60.19
2022-11-24T22:47:34.186Z,59.99
2022-11-24T22:50:00.816Z,60.21
2022-11-24T22:52:27.268Z,59.71
2022-11-24T22:54:53.719Z,60.01
2022-11-24T22:57:20.252Z,59.50
2022-11-24T22:59:46.743Z,59.19
2022-11-24T23:02:13.256Z,58.55
2022-11-24T23:04:39.759Z,59.79
2022-11-24T23:07:06.320Z,59.00
2022-11-24T23:09:33.794Z,58.48
2022-11-24T23:12:00.269Z,59.90
2022-11-24T23:14:28.766Z,59.65
2022-11-24T23:16:55.375Z,58.88
2022-11-24T23:19:22.074Z,59.86
2022-11-24T23:21:48.864Z,59.32
2022-11-24T23:24:15.378Z,60.09
2022-11-24T23:26:41.952Z,59.48
2022-11-24T23:29:10.539Z,60.29
2022-11-24T23:31:39.829Z,59.83
2022-11-24T23:34:06.771Z,59.76
2022-11-24T23:36:33.559Z,58.98
2022-11-24T23:39:04.536Z,59.46
2022-11-24T23:41:31.750Z,60.24
2022-11-24T23:43:58.949Z,60.02
2022-11-24T23:46:26.488Z,59.17
2022-11-24T23:48:54.087Z,60.27
2022-11-24T23:51:22.025Z,60.20
2022-11-24T23:53:49.127Z,60.24
2022-11-24T23:56:18.464Z,59.94
2022-11-24T23:58:44.984Z,59.30
